Time;durP1;ratioP1;P1;durP2;ratioP2;P2;SDS_P1;SDS_P2;PMS_P1;PMS_P2;Temp;Humidity;BMP_temperature;BMP_pressure;BME280_temperature;BME280_humidity;BME280_pressure;Samples;Min_cycle;Max_cycle;Signal;HPM_P1;HPM_P2
2023/10/30 00:01:10;;;;;;;3.60;0.70;;;13.10;99.90;;;;;;5053154;28;20025;-63
2023/10/30 00:03:35;;;;;;;1.05;0.57;;;13.10;99.90;;;;;;5053112;28;20036;-64
2023/10/30 00:06:01;;;;;;;2.13;0.47;;;13.00;99.90;;;;;;5052899;28;20029;-61
2023/10/30 00:08:26;;;;;;;1.20;0.60;;;13.00;99.90;;;;;;5053382;28;20029;-58
2023/10/30 00:10:52;;;;;;;5.70;1.27;;;12.90;99.90;;;;;;5052968;28;20028;-60
2023/10/30 00:13:17;;;;;;;2.97;0.83;;;13.00;99.90;;;;;;5052892;28;20526;-61
2023/10/30 00:15:43;;;;;;;5.17;0.70;;;12.90;99.90;;;;;;5052770;28;20048;-62
2023/10/30 00:18:08;;;;;;;2.93;0.83;;;13.00;99.90;;;;;;5053331;28;20471;-61
2023/10/30 00:20:37;;;;;;;4.13;1.43;;;12.90;99.90;;;;;;5053011;28;20032;-62
2023/10/30 00:23:03;;;;;;;3.10;0.77;;;12.90;99.90;;;;;;5052843;28;20064;-63
2023/10/30 00:25:28;;;;;;;9.52;1.23;;;12.80;99.90;;;;;;5053224;28;20033;-63
2023/10/30 00:27:59;;;;;;;4.23;0.77;;;12.90;99.90;;;;;;5053472;28;20021;-63
2023/10/30 00:30:25;;;;;;;2.80;0.80;;;12.90;99.90;;;;;;5051491;28;20055;-63
2023/10/30 00:32:51;;;;;;;3.53;0.73;;;12.80;99.90;;;;;;5052686;28;20028;-64
2023/10/30 00:35:16;;;;;;;5.40;0.97;;;12.90;99.90;;;;;;5051629;28;20029;-61
2023/10/30 00:37:43;;;;;;;4.13;1.20;;;12.80;99.90;;;;;;5055223;23;20045;-67
2023/10/30 00:40:10;;;;;;;3.97;1.00;;;12.70;99.90;;;;;;5033429;28;20017;-66
2023/10/30 00:42:35;;;;;;;4.00;0.68;;;12.80;99.90;;;;;;5033159;28;20403;-66
2023/10/30 00:45:04;;;;;;;8.23;1.50;;;12.70;99.90;;;;;;5031720;28;20029;-67
2023/10/30 00:47:30;;;;;;;3.38;0.80;;;12.70;99.90;;;;;;5033034;28;20029;-66
2023/10/30 00:49:55;;;;;;;5.47;0.85;;;12.70;99.90;;;;;;5033204;28;20452;-67
2023/10/30 00:52:21;;;;;;;3.83;0.77;;;12.60;99.90;;;;;;5032695;28;20040;-67
2023/10/30 00:54:46;;;;;;;6.20;0.80;;;12.70;99.90;;;;;;5033164;28;20025;-66
2023/10/30 00:57:12;;;;;;;4.13;1.13;;;12.70;99.90;;;;;;5032763;28;20021;-66
2023/10/30 00:59:37;;;;;;;2.85;0.82;;;12.60;99.90;;;;;;5031734;28;20017;-66
2023/10/30 01:02:03;;;;;;;4.13;0.73;;;12.70;99.90;;;;;;5032700;28;20022;-66
2023/10/30 01:04:28;;;;;;;6.07;1.50;;;12.60;99.90;;;;;;5031621;28;20036;-66
2023/10/30 01:06:54;;;;;;;4.53;0.87;;;12.70;99.90;;;;;;5034013;28;20025;-67
2023/10/30 01:09:20;;;;;;;2.87;0.73;;;12.70;99.90;;;;;;5036861;28;20105;-67
2023/10/30 01:11:45;;;;;;;4.53;1.17;;;12.60;99.90;;;;;;5036484;28;20261;-67
2023/10/30 01:14:11;;;;;;;4.90;0.93;;;12.50;99.90;;;;;;5036718;28;20043;-66
2023/10/30 01:16:36;;;;;;;3.30;0.63;;;12.50;99.90;;;;;;5035102;28;20025;-66
2023/10/30 01:19:02;;;;;;;3.92;1.23;;;12.60;99.90;;;;;;5036335;28;20022;-67
2023/10/30 01:21:28;;;;;;;7.90;1.38;;;12.60;99.90;;;;;;5036085;28;20392;-66
2023/10/30 01:23:53;;;;;;;5.27;0.87;;;12.60;99.90;;;;;;5035056;28;20357;-67
2023/10/30 01:26:19;;;;;;;3.53;0.70;;;12.50;99.90;;;;;;5036328;28;20115;-66
2023/10/30 01:28:44;;;;;;;7.50;1.73;;;12.50;99.90;;;;;;5036575;28;20030;-67
2023/10/30 01:31:10;;;;;;;4.53;0.80;;;12.40;99.90;;;;;;5035291;28;20029;-68
2023/10/30 01:33:35;;;;;;;5.95;1.13;;;12.40;99.90;;;;;;5034960;28;20495;-67
2023/10/30 01:36:01;;;;;;;2.97;0.95;;;12.40;99.90;;;;;;5034929;28;20033;-66
2023/10/30 01:38:27;;;;;;;5.30;0.85;;;12.40;99.90;;;;;;5036668;28;20064;-67
2023/10/30 01:40:53;;;;;;;6.20;1.30;;;12.30;99.90;;;;;;5035804;28;20069;-67
2023/10/30 01:43:31;;;;;;;4.60;1.08;;;12.50;99.90;;;;;;5035865;28;20041;-67
2023/10/30 01:45:57;;;;;;;4.45;0.77;;;12.40;99.90;;;;;;5034298;28;20114;-67
2023/10/30 01:48:25;;;;;;;5.03;1.38;;;12.50;99.90;;;;;;5035625;28;20476;-67
2023/10/30 01:50:51;;;;;;;6.35;0.90;;;12.50;99.90;;;;;;5035607;28;20056;-67
2023/10/30 01:53:19;;;;;;;4.47;0.90;;;12.60;99.90;;;;;;5033944;28;20048;-67
2023/10/30 01:55:45;;;;;;;4.22;0.73;;;12.60;99.90;;;;;;5033937;28;20025;-67
2023/10/30 01:58:11;;;;;;;4.63;1.02;;;12.50;99.90;;;;;;5035551;28;20048;-67
2023/10/30 02:00:38;;;;;;;4.07;0.80;;;12.70;99.90;;;;;;5034729;28;20125;-67
2023/10/30 02:03:04;;;;;;;3.17;0.63;;;12.60;99.90;;;;;;5035271;28;20084;-67
2023/10/30 02:05:30;;;;;;;5.93;1.20;;;12.70;99.90;;;;;;5033822;28;20053;-67
2023/10/30 02:07:56;;;;;;;2.45;0.90;;;12.70;99.90;;;;;;5034837;28;20037;-67
2023/10/30 02:10:21;;;;;;;1.90;0.60;;;12.70;99.90;;;;;;5033787;28;20506;-67
2023/10/30 02:12:50;;;;;;;2.20;0.50;;;12.70;99.90;;;;;;5034910;28;20034;-67
2023/10/30 02:15:16;;;;;;;3.10;0.90;;;12.70;99.90;;;;;;5033738;28;20030;-67
2023/10/30 02:17:42;;;;;;;2.78;0.63;;;12.60;99.90;;;;;;5034525;28;20025;-67
2023/10/30 02:20:08;;;;;;;4.13;1.17;;;12.60;99.90;;;;;;5034669;28;20026;-67
2023/10/30 02:22:34;;;;;;;1.20;0.73;;;12.70;99.90;;;;;;5033271;28;20495;-67
2023/10/30 02:24:59;;;;;;;1.43;0.60;;;12.70;99.90;;;;;;5033541;28;20022;-67
2023/10/30 02:27:25;;;;;;;2.80;0.40;;;12.60;99.90;;;;;;5033342;28;20021;-67
2023/10/30 02:29:50;;;;;;;2.23;0.50;;;12.60;99.90;;;;;;5033337;28;20028;-67
2023/10/30 02:32:16;;;;;;;2.60;0.90;;;12.50;99.90;;;;;;5033244;28;20028;-67
2023/10/30 02:34:41;;;;;;;2.77;0.87;;;12.50;99.90;;;;;;5034480;28;20028;-67
2023/10/30 02:37:07;;;;;;;5.47;0.70;;;12.50;99.90;;;;;;5032675;28;20053;-67
2023/10/30 02:39:33;;;;;;;4.40;1.07;;;12.50;99.90;;;;;;5034414;28;20022;-66
2023/10/30 02:42:00;;;;;;;4.28;0.88;;;12.40;99.90;;;;;;5034722;28;20018;-67
2023/10/30 02:44:28;;;;;;;5.32;0.88;;;12.40;99.90;;;;;;5033083;28;20032;-67
2023/10/30 02:46:54;;;;;;;6.05;0.70;;;12.40;99.90;;;;;;5032955;28;20479;-67
2023/10/30 02:49:20;;;;;;;4.70;0.75;;;12.40;99.90;;;;;;5034254;28;20190;-67
2023/10/30 02:51:45;;;;;;;3.53;0.77;;;12.30;99.90;;;;;;5034054;28;20563;-66
2023/10/30 02:54:11;;;;;;;2.70;0.77;;;12.40;99.90;;;;;;5034072;28;20041;-67
2023/10/30 02:56:36;;;;;;;3.97;0.73;;;12.40;99.90;;;;;;5032817;28;20025;-67
2023/10/30 02:59:02;;;;;;;2.60;0.60;;;12.40;99.90;;;;;;5032763;28;20383;-66
2023/10/30 03:01:28;;;;;;;3.80;0.87;;;12.30;99.90;;;;;;5034141;28;20037;-67
2023/10/30 03:03:54;;;;;;;;;;;12.30;99.90;;;;;;5034432;28;20268;-67
2023/10/30 03:06:20;;;;;;;3.63;0.90;;;12.20;99.90;;;;;;5032235;28;19932;-67
2023/10/30 03:08:45;;;;;;;1.43;0.70;;;12.20;99.90;;;;;;5033927;28;20029;-67
2023/10/30 03:11:11;;;;;;;3.97;0.80;;;12.20;99.90;;;;;;5033789;28;20029;-67
2023/10/30 03:13:36;;;;;;;2.93;0.70;;;12.20;99.90;;;;;;5033807;28;20080;-67
2023/10/30 03:16:02;;;;;;;2.47;0.80;;;12.30;99.90;;;;;;5033697;28;20025;-67
2023/10/30 03:18:28;;;;;;;3.33;0.80;;;12.20;99.90;;;;;;5032394;28;20022;-67
2023/10/30 03:20:53;;;;;;;3.43;1.00;;;12.30;99.90;;;;;;5033940;28;20484;-67
2023/10/30 03:23:20;;;;;;;3.00;0.83;;;12.30;99.90;;;;;;5033426;28;20492;-67
2023/10/30 03:25:45;;;;;;;;;;;12.30;99.90;;;;;;5034139;28;20026;-67
2023/10/30 03:28:11;;;;;;;7.00;1.10;;;12.30;99.90;;;;;;5033547;28;19905;-67
2023/10/30 03:30:37;;;;;;;5.27;1.07;;;12.30;99.90;;;;;;5032610;28;20100;-68
2023/10/30 03:33:05;;;;;;;3.67;0.75;;;12.20;99.90;;;;;;5032690;28;20045;-67
2023/10/30 03:35:36;;;;;;;2.22;0.68;;;12.20;99.90;;;;;;5033589;28;20115;-67
2023/10/30 03:38:01;;;;;;;3.42;0.70;;;12.10;99.90;;;;;;5031617;28;20434;-67
2023/10/30 03:40:27;;;;;;;3.90;0.50;;;12.20;99.90;;;;;;5033354;28;20025;-67
2023/10/30 03:42:52;;;;;;;1.67;0.80;;;12.20;99.90;;;;;;5033338;28;20376;-67
2023/10/30 03:45:18;;;;;;;1.85;0.70;;;12.30;99.90;;;;;;5032314;28;20030;-67
2023/10/30 03:47:45;;;;;;;2.10;0.70;;;12.20;99.90;;;;;;5033117;28;20043;-67
2023/10/30 03:50:12;;;;;;;3.05;0.70;;;12.20;99.90;;;;;;5033052;28;20026;-67
2023/10/30 03:52:39;;;;;;;2.90;0.60;;;12.10;99.90;;;;;;5032807;28;20021;-66
2023/10/30 03:55:05;;;;;;;4.85;0.90;;;12.30;99.90;;;;;;5031831;28;20030;-67
2023/10/30 03:57:30;;;;;;;3.22;0.73;;;12.20;99.90;;;;;;5033149;28;20037;-67
2023/10/30 03:59:56;;;;;;;3.33;0.87;;;12.10;99.90;;;;;;5032054;28;20049;-67
2023/10/30 04:02:22;;;;;;;4.50;0.82;;;12.10;99.90;;;;;;5033023;28;20084;-67
2023/10/30 04:04:47;;;;;;;3.27;0.90;;;12.20;99.90;;;;;;5033738;28;20030;-67
2023/10/30 04:07:13;;;;;;;4.27;0.70;;;12.10;99.90;;;;;;5033541;28;20488;-67
2023/10/30 04:09:39;;;;;;;1.73;0.70;;;12.10;99.90;;;;;;5033726;28;20048;-67
2023/10/30 04:12:04;;;;;;;2.43;0.60;;;12.10;99.90;;;;;;5032130;28;20097;-67
2023/10/30 04:14:30;;;;;;;1.50;0.55;;;12.10;99.90;;;;;;5033773;28;20033;-67
2023/10/30 04:17:02;;;;;;;2.53;0.60;;;12.20;99.90;;;;;;5032278;28;20494;-67
2023/10/30 04:19:28;;;;;;;2.35;0.80;;;12.10;99.90;;;;;;5033262;28;20033;-67
2023/10/30 04:21:53;;;;;;;2.40;0.70;;;12.10;99.90;;;;;;5033663;28;20488;-66
2023/10/30 04:24:19;;;;;;;1.93;0.53;;;12.10;99.90;;;;;;5032668;28;20037;-67
2023/10/30 04:26:45;;;;;;;2.87;0.70;;;12.20;99.90;;;;;;5033591;28;20467;-67
2023/10/30 04:29:10;;;;;;;5.30;1.07;;;12.10;99.90;;;;;;5033361;28;20048;-67
2023/10/30 04:31:36;;;;;;;1.13;0.60;;;12.00;99.90;;;;;;5032469;28;20044;-66
2023/10/30 04:34:01;;;;;;;3.87;1.10;;;12.00;99.90;;;;;;5032949;28;20081;-67
2023/10/30 04:36:27;;;;;;;3.40;0.70;;;11.90;99.90;;;;;;5032518;28;20038;-66
2023/10/30 04:38:52;;;;;;;1.27;0.70;;;11.90;99.90;;;;;;5031817;28;20071;-67
2023/10/30 04:41:18;;;;;;;2.23;0.40;;;11.90;99.90;;;;;;5033258;28;20156;-67
2023/10/30 04:43:43;;;;;;;1.67;0.50;;;11.90;99.90;;;;;;5037257;28;20026;-67
2023/10/30 04:46:09;;;;;;;3.43;0.60;;;11.90;99.90;;;;;;5036814;28;20036;-67
2023/10/30 04:48:34;;;;;;;1.23;0.50;;;12.10;99.90;;;;;;5036640;28;20052;-67
2023/10/30 04:51:00;;;;;;;1.53;0.47;;;12.00;99.90;;;;;;5037466;28;20108;-68
2023/10/30 04:53:29;;;;;;;3.25;0.73;;;12.10;99.90;;;;;;5036577;28;20025;-68
2023/10/30 04:55:56;;;;;;;1.85;0.70;;;12.10;99.90;;;;;;5036254;28;20079;-67
2023/10/30 04:58:22;;;;;;;1.55;0.50;;;12.10;99.90;;;;;;5034932;28;20049;-67
2023/10/30 05:00:48;;;;;;;2.00;0.50;;;12.10;99.90;;;;;;5036198;28;20044;-67
2023/10/30 05:03:13;;;;;;;0.90;0.50;;;12.10;99.90;;;;;;5034867;28;20028;-67
2023/10/30 05:05:39;;;;;;;1.58;0.65;;;12.10;99.90;;;;;;5034735;28;20076;-67
2023/10/30 05:08:05;;;;;;;1.37;0.50;;;12.10;99.90;;;;;;5034630;28;20029;-68
2023/10/30 05:10:30;;;;;;;2.30;1.08;;;12.10;99.90;;;;;;5036508;28;20108;-68
2023/10/30 05:12:56;;;;;;;1.65;0.40;;;12.10;99.90;;;;;;5034756;28;20438;-68
2023/10/30 05:15:21;;;;;;;1.80;0.40;;;12.10;99.90;;;;;;5035146;28;20578;-68
2023/10/30 05:17:47;;;;;;;1.40;0.60;;;12.20;99.90;;;;;;5034606;28;20335;-68
2023/10/30 05:20:13;;;;;;;1.20;0.60;;;12.10;99.90;;;;;;5035844;28;20017;-68
2023/10/30 05:22:39;;;;;;;1.80;0.70;;;12.10;99.90;;;;;;5034296;28;20333;-68
2023/10/30 05:25:05;;;;;;;5.07;0.60;;;12.30;99.90;;;;;;5035932;28;20030;-68
2023/10/30 05:27:32;;;;;;;1.38;0.40;;;12.30;99.90;;;;;;5034201;28;20032;-68
2023/10/30 05:29:58;;;;;;;2.05;0.68;;;12.20;99.90;;;;;;5035635;28;20123;-68
2023/10/30 05:32:24;;;;;;;0.95;0.50;;;12.30;99.90;;;;;;5035349;28;20030;-69
2023/10/30 05:34:50;;;;;;;1.67;0.60;;;12.20;99.90;;;;;;5035686;28;20091;-69
2023/10/30 05:37:16;;;;;;;1.48;0.50;;;12.20;99.90;;;;;;5035075;28;20542;-69
2023/10/30 05:39:45;;;;;;;1.40;0.80;;;12.40;99.90;;;;;;5034246;28;20029;-69
2023/10/30 05:42:10;;;;;;;3.53;0.93;;;12.20;99.90;;;;;;5035591;28;20021;-69
2023/10/30 05:44:36;;;;;;;1.00;0.70;;;12.20;99.90;;;;;;5034275;28;20075;-69
2023/10/30 05:47:02;;;;;;;0.93;0.40;;;12.40;99.90;;;;;;5035390;28;20036;-69
2023/10/30 05:49:28;;;;;;;1.08;0.55;;;12.30;99.90;;;;;;5034134;28;20396;-69
2023/10/30 05:51:54;;;;;;;3.53;0.70;;;12.30;99.90;;;;;;5035050;28;20029;-68
2023/10/30 05:54:21;;;;;;;1.92;0.60;;;12.20;99.90;;;;;;5034238;28;20495;-69
2023/10/30 05:56:46;;;;;;;3.70;0.90;;;12.30;99.90;;;;;;5035062;28;20025;-67
2023/10/30 05:59:12;;;;;;;2.63;0.77;;;12.30;99.90;;;;;;5035221;28;20044;-67
2023/10/30 06:01:38;;;;;;;2.47;1.10;;;12.20;99.90;;;;;;5034122;28;20076;-69
2023/10/30 06:04:04;;;;;;;1.80;1.00;;;12.20;99.90;;;;;;5036603;28;20033;-71
2023/10/30 06:06:29;;;;;;;3.17;0.88;;;12.20;99.90;;;;;;5039917;28;20829;-70
2023/10/30 06:08:55;;;;;;;3.03;1.13;;;12.10;99.90;;;;;;5035161;28;20037;-71
2023/10/30 06:11:21;;;;;;;4.05;0.90;;;12.10;99.90;;;;;;5035064;28;20029;-72
2023/10/30 06:13:46;;;;;;;1.42;0.90;;;12.10;99.90;;;;;;5033789;28;20113;-70
2023/10/30 06:16:18;;;;;;;3.10;1.10;;;12.10;99.90;;;;;;5033824;28;20384;-68
2023/10/30 06:18:44;;;;;;;3.50;1.40;;;12.10;99.90;;;;;;5035154;28;20075;-66
2023/10/30 06:21:17;;;;;;;3.28;1.10;;;12.10;99.90;;;;;;5034756;28;20496;-67
2023/10/30 06:23:43;;;;;;;8.77;2.05;;;12.10;99.90;;;;;;5033168;28;20037;-67
2023/10/30 06:26:10;;;;;;;5.47;1.45;;;12.10;99.90;;;;;;5034929;28;20104;-68
2023/10/30 06:28:39;;;;;;;3.00;1.30;;;12.10;99.90;;;;;;5034906;28;20423;-68
2023/10/30 06:31:18;;;;;;;3.97;1.20;;;12.10;99.90;;;;;;5034893;28;20044;-68
2023/10/30 06:33:45;;;;;;;2.35;1.20;;;12.10;99.90;;;;;;5034663;28;20034;-68
2023/10/30 06:36:11;;;;;;;3.05;1.50;;;12.20;99.90;;;;;;5046806;23;20045;-66
2023/10/30 06:38:36;;;;;;;4.85;1.30;;;12.30;99.90;;;;;;5014819;28;20037;-65
2023/10/30 06:41:03;;;;;;;3.90;1.30;;;12.30;99.90;;;;;;5015187;28;20482;-65
2023/10/30 06:43:29;;;;;;;2.97;1.10;;;12.30;99.90;;;;;;5014889;28;20022;-65
2023/10/30 06:46:04;;;;;;;5.82;1.33;;;12.40;99.90;;;;;;5015176;28;20025;-63
2023/10/30 06:48:31;;;;;;;3.40;1.77;;;12.40;99.90;;;;;;4995112;28;20030;-63
2023/10/30 06:50:57;;;;;;;3.60;1.40;;;12.50;99.90;;;;;;4995193;28;20549;-65
2023/10/30 06:53:23;;;;;;;3.20;1.17;;;12.50;99.90;;;;;;4995132;28;20108;-63
2023/10/30 06:55:50;;;;;;;3.20;1.08;;;12.60;99.90;;;;;;4995000;28;20468;-63
2023/10/30 06:58:16;;;;;;;3.75;1.50;;;12.70;99.90;;;;;;4995712;28;20018;-61
2023/10/30 07:00:42;;;;;;;2.33;1.13;;;12.80;99.90;;;;;;4994275;28;20473;-63
2023/10/30 07:03:07;;;;;;;3.50;1.17;;;12.80;99.90;;;;;;4994421;28;20081;-62
2023/10/30 07:05:33;;;;;;;2.63;1.30;;;12.70;99.90;;;;;;4994232;28;20037;-60
2023/10/30 07:07:58;;;;;;;1.83;1.00;;;12.80;99.90;;;;;;5009996;28;20069;-60
2023/10/30 07:10:24;;;;;;;4.50;1.27;;;12.90;99.90;;;;;;5015077;28;20083;-63
2023/10/30 07:12:50;;;;;;;3.10;1.20;;;12.90;99.90;;;;;;5014547;28;20029;-62
2023/10/30 07:15:15;;;;;;;3.47;1.40;;;13.00;99.90;;;;;;5014093;28;20477;-62
2023/10/30 07:17:41;;;;;;;7.37;2.90;;;13.10;99.90;;;;;;5014283;28;20411;-63
2023/10/30 07:20:07;;;;;;;3.35;1.30;;;13.10;99.90;;;;;;5014266;28;20468;-63
2023/10/30 07:22:32;;;;;;;3.85;1.95;;;13.10;99.90;;;;;;5014347;28;20499;-63
2023/10/30 07:24:58;;;;;;;8.20;1.90;;;13.20;99.90;;;;;;5014489;28;20483;-62
2023/10/30 07:27:23;;;;;;;6.43;2.17;;;13.20;99.90;;;;;;5014623;28;20033;-62
2023/10/30 07:29:49;;;;;;;6.73;1.10;;;13.20;99.90;;;;;;5014087;28;20025;-62
2023/10/30 07:32:16;;;;;;;2.83;2.10;;;13.30;99.90;;;;;;5012898;28;20105;-65
2023/10/30 07:34:42;;;;;;;4.45;1.13;;;13.30;99.90;;;;;;5014437;28;20022;-65
2023/10/30 07:37:08;;;;;;;7.13;1.60;;;13.30;99.90;;;;;;5013552;28;20084;-64
2023/10/30 07:39:33;;;;;;;4.07;1.52;;;13.40;99.90;;;;;;5013412;28;20257;-65
2023/10/30 07:41:59;;;;;;;3.15;1.60;;;13.50;99.90;;;;;;5014258;28;20029;-65
2023/10/30 07:44:25;;;;;;;94.85;59.88;;;13.70;99.90;;;;;;5014413;28;20030;-63
2023/10/30 07:46:50;;;;;;;7.93;4.63;;;13.80;99.90;;;;;;5013470;28;20033;-64
2023/10/30 07:49:16;;;;;;;4.20;1.33;;;13.90;99.90;;;;;;5013252;28;20109;-64
2023/10/30 07:51:41;;;;;;;4.03;1.65;;;14.10;99.90;;;;;;5013268;28;20476;-64
2023/10/30 07:54:07;;;;;;;1.90;1.20;;;14.20;99.90;;;;;;5014184;28;20033;-66
2023/10/30 07:56:33;;;;;;;2.53;1.67;;;14.30;99.90;;;;;;5012121;28;20257;-63
2023/10/30 07:58:58;;;;;;;2.23;1.30;;;14.30;99.90;;;;;;5013645;28;20257;-62
2023/10/30 08:01:24;;;;;;;4.83;1.30;;;14.30;99.90;;;;;;5013183;28;20103;-65
2023/10/30 08:03:50;;;;;;;2.13;1.13;;;14.40;99.90;;;;;;5013351;28;20342;-66
2023/10/30 08:06:15;;;;;;;2.23;1.30;;;14.40;99.90;;;;;;5013420;28;20492;-66
2023/10/30 08:08:41;;;;;;;1.77;0.90;;;14.50;99.90;;;;;;5011743;28;20026;-65
2023/10/30 08:11:06;;;;;;;3.70;1.23;;;14.50;99.90;;;;;;5012277;28;20034;-64
2023/10/30 08:13:33;;;;;;;3.47;0.95;;;14.50;99.90;;;;;;5011932;28;20289;-65
2023/10/30 08:15:59;;;;;;;2.92;1.30;;;14.40;99.90;;;;;;5012516;28;20030;-65
2023/10/30 08:18:25;;;;;;;3.50;1.23;;;14.30;99.90;;;;;;5013283;28;20037;-64
2023/10/30 08:20:51;;;;;;;4.53;1.05;;;14.20;99.90;;;;;;5013715;28;20022;-65
2023/10/30 08:23:16;;;;;;;3.03;1.00;;;14.20;99.90;;;;;;5011958;28;20404;-65
2023/10/30 08:25:42;;;;;;;3.92;1.35;;;14.20;99.90;;;;;;5014403;28;20026;-65
2023/10/30 08:28:08;;;;;;;6.32;1.38;;;14.30;99.90;;;;;;5014511;28;20022;-65
2023/10/30 08:30:34;;;;;;;4.60;1.43;;;14.40;99.90;;;;;;5011854;28;20030;-65
2023/10/30 08:33:03;;;;;;;5.28;1.40;;;14.50;99.90;;;;;;5011534;28;20305;-66
2023/10/30 08:35:29;;;;;;;3.30;0.98;;;14.60;99.90;;;;;;5013141;28;20472;-65
2023/10/30 08:37:55;;;;;;;2.53;0.88;;;14.80;99.90;;;;;;4997873;28;20030;-66
2023/10/30 08:40:20;;;;;;;;;;;14.90;99.90;;;;;;4992760;28;20467;-65
2023/10/30 08:42:47;;;;;;;2.72;1.20;;;15.00;99.90;;;;;;4993595;28;20008;-63
2023/10/30 08:45:12;;;;;;;3.38;1.20;;;15.10;99.90;;;;;;4993523;28;20105;-64
2023/10/30 08:47:38;;;;;;;4.88;1.48;;;14.90;99.90;;;;;;4993193;28;20102;-64
2023/10/30 08:50:05;;;;;;;;;;;14.90;99.90;;;;;;4993592;28;20041;-62
2023/10/30 08:52:30;;;;;;;5.78;1.77;;;14.90;99.90;;;;;;4992349;28;20000;-63
2023/10/30 08:54:56;;;;;;;3.40;1.50;;;14.90;99.90;;;;;;4991621;28;20126;-60
2023/10/30 08:57:21;;;;;;;2.40;1.60;;;14.90;99.90;;;;;;4992947;28;20436;-63
2023/10/30 08:59:47;;;;;;;3.50;1.70;;;14.80;99.90;;;;;;4993145;28;20050;-63
2023/10/30 09:02:12;;;;;;;3.80;1.43;;;14.90;99.90;;;;;;4991701;28;20026;-64
2023/10/30 09:04:38;;;;;;;5.03;1.60;;;14.90;99.90;;;;;;4993278;28;20276;-62
2023/10/30 09:07:04;;;;;;;6.38;1.98;;;15.00;99.90;;;;;;5000405;28;20018;-62
2023/10/30 09:09:29;;;;;;;2.50;1.90;;;15.00;99.90;;;;;;5011371;28;20025;-64
2023/10/30 09:11:55;;;;;;;4.27;2.10;;;15.30;99.90;;;;;;5012652;28;20445;-60
2023/10/30 09:14:20;;;;;;;5.28;2.42;;;15.50;99.90;;;;;;5012229;28;20037;-61
2023/10/30 09:16:46;;;;;;;4.50;2.30;;;15.70;99.90;;;;;;5012851;28;20045;-63
2023/10/30 09:19:11;;;;;;;4.17;2.40;;;15.90;99.90;;;;;;5012439;28;20284;-62
2023/10/30 09:21:37;;;;;;;4.10;2.30;;;16.20;99.90;;;;;;5012143;28;20105;-63
2023/10/30 09:24:03;;;;;;;3.88;2.17;;;16.40;99.90;;;;;;5012423;28;20025;-62
2023/10/30 09:26:29;;;;;;;2.63;2.30;;;16.60;99.90;;;;;;5010786;28;20062;-62
2023/10/30 09:28:55;;;;;;;7.53;2.60;;;16.80;99.90;;;;;;5013691;28;20030;-62
2023/10/30 09:31:20;;;;;;;2.97;1.92;;;16.90;99.90;;;;;;5015860;28;20034;-62
2023/10/30 09:33:47;;;;;;;3.45;2.47;;;17.00;99.90;;;;;;5015945;28;20026;-60
2023/10/30 09:36:13;;;;;;;3.97;2.38;;;17.10;99.90;;;;;;5015603;28;20026;-62
2023/10/30 09:38:38;;;;;;;3.75;1.92;;;17.20;99.90;;;;;;5015560;28;20048;-62
2023/10/30 09:41:05;;;;;;;5.70;3.10;;;17.40;99.90;;;;;;5016028;28;20033;-61
2023/10/30 09:43:33;;;;;;;4.63;2.30;;;17.30;99.90;;;;;;5016037;28;20033;-64
2023/10/30 09:46:00;;;;;;;3.58;2.20;;;17.20;99.90;;;;;;5015461;28;20109;-63
2023/10/30 09:48:28;;;;;;;5.80;2.72;;;17.10;99.90;;;;;;5015848;28;20022;-62
2023/10/30 09:50:54;;;;;;;6.15;3.70;;;17.10;99.90;;;;;;5015647;28;20495;-63
2023/10/30 09:53:20;;;;;;;4.07;2.17;;;17.10;99.90;;;;;;5015108;28;20034;-62
2023/10/30 09:55:48;;;;;;;8.23;5.32;;;17.20;99.90;;;;;;5015719;28;20030;-63
2023/10/30 09:58:15;;;;;;;7.75;2.50;;;17.10;99.90;;;;;;5015307;28;20018;-62
2023/10/30 10:00:44;;;;;;;2.40;2.10;;;17.00;99.90;;;;;;5015183;28;20046;-62
2023/10/30 10:03:10;;;;;;;7.53;2.65;;;16.90;99.90;;;;;;5015111;28;20029;-63
2023/10/30 10:05:35;;;;;;;3.67;2.38;;;16.70;99.90;;;;;;5015398;28;20030;-62
2023/10/30 10:08:01;;;;;;;7.55;3.05;;;16.60;99.90;;;;;;5014551;28;20504;-63
2023/10/30 10:10:26;;;;;;;5.32;2.40;;;16.50;99.90;;;;;;5015177;28;20033;-62
2023/10/30 10:12:55;;;;;;;7.28;2.95;;;16.50;99.90;;;;;;5014944;28;20038;-61
2023/10/30 10:15:21;;;;;;;5.13;2.60;;;16.60;99.90;;;;;;5015281;28;20061;-61
2023/10/30 10:17:48;;;;;;;4.40;2.30;;;16.70;99.90;;;;;;5014915;28;20476;-60
2023/10/30 10:20:14;;;;;;;5.97;2.78;;;16.90;99.90;;;;;;5014882;28;20029;-61
2023/10/30 10:22:40;;;;;;;3.95;2.88;;;17.20;99.90;;;;;;5014716;28;20400;-61
2023/10/30 10:25:18;;;;;;;5.95;2.80;;;17.40;99.90;;;;;;5014612;28;20022;-62
2023/10/30 10:27:44;;;;;;;2.65;2.03;;;17.40;99.90;;;;;;5013266;28;20026;-61
2023/10/30 10:30:10;;;;;;;;;;;17.30;99.90;;;;;;5015063;28;20029;-60
2023/10/30 10:32:37;;;;;;;5.57;2.92;;;17.30;99.90;;;;;;5014622;28;19909;-61
2023/10/30 10:35:05;;;;;;;4.93;2.80;;;17.20;99.90;;;;;;5014533;28;20022;-61
2023/10/30 10:37:31;;;;;;;5.22;2.72;;;17.20;99.90;;;;;;5013759;28;20093;-62
2023/10/30 10:39:57;;;;;;;3.08;2.50;;;17.20;99.90;;;;;;5013896;28;20038;-61
2023/10/30 10:42:24;;;;;;;5.95;2.83;;;17.20;99.90;;;;;;5014325;28;20030;-64
2023/10/30 10:44:52;;;;;;;5.97;3.35;;;17.20;99.90;;;;;;5014372;28;20022;-65
2023/10/30 10:47:19;;;;;;;5.13;2.63;;;17.10;99.90;;;;;;5013761;28;20030;-62
2023/10/30 10:49:45;;;;;;;5.28;2.70;;;17.10;99.90;;;;;;5013947;28;20077;-63
2023/10/30 10:52:14;;;;;;;7.07;2.97;;;17.10;99.90;;;;;;5013914;28;20400;-62
2023/10/30 10:54:57;;;;;;;6.88;3.13;;;17.00;99.90;;;;;;5014233;28;20033;-62
2023/10/30 10:57:24;;;;;;;5.05;3.25;;;17.00;99.90;;;;;;5014068;28;20025;-63
2023/10/30 11:00:00;;;;;;;7.43;3.75;;;16.90;99.90;;;;;;5014334;28;20021;-64
2023/10/30 11:02:30;;;;;;;5.03;3.10;;;16.80;99.90;;;;;;5014261;28;20021;-61
2023/10/30 11:04:58;;;;;;;7.88;4.65;;;16.80;99.90;;;;;;5013859;28;20052;-62
2023/10/30 11:07:52;;;;;;;4.75;2.90;;;16.70;99.90;;;;;;5013552;28;20160;-62
2023/10/30 11:10:25;;;;;;;4.55;2.80;;;16.70;99.90;;;;;;5014188;28;20030;-58
2023/10/30 11:13:05;;;;;;;4.60;2.72;;;16.60;99.90;;;;;;5013813;28;20076;-60
2023/10/30 11:15:34;;;;;;;5.88;2.40;;;16.70;99.90;;;;;;5014023;28;20030;-62
2023/10/30 11:18:17;;;;;;;6.07;3.47;;;16.70;99.90;;;;;;5013611;28;20021;-62
2023/10/30 11:20:47;;;;;;;5.38;2.63;;;16.80;99.90;;;;;;5014029;28;20029;-61
2023/10/30 11:23:23;;;;;;;8.98;3.47;;;16.70;99.90;;;;;;5012474;28;20421;-62
2023/10/30 11:25:54;;;;;;;6.60;2.55;;;16.60;99.90;;;;;;5013860;28;20065;-62
2023/10/30 11:28:22;;;;;;;5.47;2.72;;;16.60;99.90;;;;;;5014025;28;20026;-62
2023/10/30 11:30:51;;;;;;;3.75;2.53;;;16.50;99.90;;;;;;5013923;28;20417;-66
2023/10/30 11:33:19;;;;;;;3.38;2.30;;;16.50;99.90;;;;;;5018823;28;20022;-67
2023/10/30 11:35:45;;;;;;;4.15;2.35;;;16.50;99.90;;;;;;5019705;28;20093;-64
2023/10/30 11:38:11;;;;;;;;;;;16.40;99.90;;;;;;5014473;28;20030;-62
2023/10/30 11:40:37;;;;;;;6.20;2.72;;;16.40;99.90;;;;;;5012118;28;19979;-64
2023/10/30 11:43:07;;;;;;;5.25;2.83;;;16.40;99.90;;;;;;5013719;28;20022;-65
2023/10/30 11:45:33;;;;;;;4.13;2.42;;;16.40;99.90;;;;;;5013418;28;20030;-63
2023/10/30 11:48:06;;;;;;;5.85;2.50;;;16.50;99.90;;;;;;5013451;28;20022;-65
2023/10/30 11:50:43;;;;;;;5.63;2.55;;;16.50;99.90;;;;;;5013102;28;20037;-64
2023/10/30 11:53:10;;;;;;;11.02;4.88;;;16.50;99.90;;;;;;5011390;28;20051;-65
2023/10/30 11:55:40;;;;;;;17.20;8.55;;;16.70;99.90;;;;;;5012104;28;20022;-66
2023/10/30 11:58:10;;;;;;;40.20;21.55;;;16.70;99.90;;;;;;5014183;28;20026;-66
2023/10/30 12:00:40;;;;;;;19.13;13.05;;;16.60;99.90;;;;;;5014195;28;20380;-66
2023/10/30 12:03:07;;;;;;;5.20;3.42;;;16.60;99.90;;;;;;5013539;28;20062;-66
2023/10/30 12:05:32;;;;;;;7.93;4.15;;;16.60;99.90;;;;;;5012200;28;20076;-65
2023/10/30 12:07:58;;;;;;;4.87;3.20;;;16.60;99.90;;;;;;5028402;28;20400;-65
2023/10/30 12:10:24;;;;;;;2.72;2.05;;;16.60;99.90;;;;;;5013380;28;20288;-65
2023/10/30 12:12:50;;;;;;;4.88;2.40;;;16.60;99.90;;;;;;5013574;28;20030;-64
2023/10/30 12:15:16;;;;;;;4.80;2.30;;;16.60;99.90;;;;;;5013348;28;20112;-66
2023/10/30 12:17:41;;;;;;;5.88;2.35;;;16.50;99.90;;;;;;5011830;28;20350;-65
2023/10/30 12:20:09;;;;;;;3.97;2.17;;;16.50;99.90;;;;;;5013166;28;20026;-65
2023/10/30 12:22:39;;;;;;;7.20;3.08;;;16.40;99.90;;;;;;5013278;28;20030;-68
2023/10/30 12:25:05;;;;;;;9.13;3.67;;;16.50;99.90;;;;;;5011565;28;20468;-68
2023/10/30 12:27:33;;;;;;;6.15;3.25;;;16.50;99.90;;;;;;5012984;28;20121;-70
2023/10/30 12:29:59;;;;;;;5.50;3.15;;;16.50;99.90;;;;;;5011578;28;20037;-69
2023/10/30 12:32:30;;;;;;;6.32;3.30;;;16.60;99.90;;;;;;5011678;28;20073;-68
2023/10/30 12:35:06;;;;;;;5.40;2.67;;;16.60;99.90;;;;;;5011627;28;20030;-68
2023/10/30 12:37:31;;;;;;;6.18;2.85;;;16.60;99.90;;;;;;5012768;28;20496;-70
2023/10/30 12:40:04;;;;;;;5.43;2.60;;;16.50;99.90;;;;;;5013171;28;20062;-74
2023/10/30 12:42:37;;;;;;;7.35;3.30;;;16.50;99.90;;;;;;5013148;28;20540;-73
2023/10/30 12:45:09;;;;;;;7.38;2.55;;;16.50;99.90;;;;;;5012806;28;20128;-71